Sao Rafael, Brazil
Current Conditions -  °F | °C
As of 5:00 PM on Thursday 29 Jan 2015 (Local Time) from SBNT Reporting Station
Scattered Clouds Scattered Clouds  
Wind Chill: 82°   Ceiling: Unl
Heat Index: 86°   Visibility: 6mi
Dew Point: 70°   Wind: 15mph
Humidity: 66%   Direction: 110°ESE
Pressure: 29.85"   Gusts: NA
Location:  5.8°S, 36.92°W
Report Text: SBNT 292000Z 11013KT 9999 SCT021 28/21 Q1011
Loading
Personal Weather Stations






























Interactive Weather Map New forecast layout! Learn more

10-Day Weather Forecast

Advertisements
Track Severe Weather on mobile